createdAt,value
2024-01-18T00:01:50.487Z,2.83
2024-01-18T00:04:17.072Z,2.58
2024-01-18T00:06:43.617Z,2.75
2024-01-18T00:09:10.049Z,2.58
2024-01-18T00:11:36.444Z,2.42
2024-01-18T00:14:03.981Z,2.47
2024-01-18T00:16:30.414Z,2.65
2024-01-18T00:18:57.218Z,2.72
2024-01-18T00:21:23.896Z,2.72
2024-01-18T00:23:50.728Z,2.10
2024-01-18T00:26:17.177Z,2.50
2024-01-18T00:28:43.596Z,3.00
2024-01-18T00:31:09.954Z,2.17
2024-01-18T00:33:36.403Z,2.55
2024-01-18T00:36:03.207Z,2.67
2024-01-18T00:38:29.664Z,2.80
2024-01-18T00:40:56.092Z,1.77
2024-01-18T00:43:22.524Z,1.73
2024-01-18T00:45:48.992Z,2.25
2024-01-18T00:48:15.592Z,2.13
2024-01-18T00:50:42.087Z,2.58
2024-01-18T00:53:08.468Z,2.17
2024-01-18T00:55:34.850Z,2.78
2024-01-18T00:58:02.038Z,2.05
2024-01-18T01:00:28.889Z,2.42
2024-01-18T01:02:55.450Z,3.03
2024-01-18T01:05:21.895Z,1.92
2024-01-18T01:07:48.381Z,2.85
2024-01-18T01:10:14.942Z,3.03
2024-01-18T01:12:41.498Z,2.83
2024-01-18T01:15:08.825Z,1.95
2024-01-18T01:17:35.478Z,2.55
2024-01-18T01:20:05.766Z,3.08
2024-01-18T01:22:32.761Z,2.60
2024-01-18T01:24:59.208Z,2.17
2024-01-18T01:27:25.651Z,3.38
2024-01-18T01:29:52.110Z,2.17
2024-01-18T01:32:18.582Z,2.38
2024-01-18T01:34:45.100Z,1.85
2024-01-18T01:37:12.427Z,2.53
2024-01-18T01:39:38.884Z,2.42
2024-01-18T01:42:05.559Z,2.75
2024-01-18T01:44:31.975Z,3.10
2024-01-18T01:46:59.059Z,2.35
2024-01-18T01:49:26.233Z,2.40
2024-01-18T01:51:53.936Z,2.75
2024-01-18T01:54:21.839Z,2.13
2024-01-18T01:56:51.608Z,2.85
2024-01-18T01:59:18.809Z,1.65
2024-01-18T02:01:46.590Z,2.40
2024-01-18T02:04:13.547Z,2.78
2024-01-18T02:06:41.630Z,2.30
2024-01-18T02:09:09.785Z,2.22
2024-01-18T02:11:36.972Z,2.33
2024-01-18T02:14:04.647Z,3.25
2024-01-18T02:16:31.680Z,2.30
2024-01-18T02:18:58.347Z,2.47
2024-01-18T02:21:27.186Z,2.67
2024-01-18T02:24:32.157Z,2.38
2024-01-18T02:26:59.228Z,2.83
2024-01-18T02:29:25.728Z,2.63
2024-01-18T02:31:52.084Z,2.70
2024-01-18T02:34:19.440Z,2.58
2024-01-18T02:36:46.674Z,3.60
2024-01-18T02:39:13.670Z,2.35
2024-01-18T02:41:40.453Z,2.38
2024-01-18T02:44:07.123Z,2.83
2024-01-18T02:46:34.387Z,3.33
2024-01-18T02:49:01.436Z,3.53
2024-01-18T02:51:28.301Z,2.63
2024-01-18T02:53:54.711Z,3.13
2024-01-18T02:56:22.667Z,3.38
2024-01-18T02:58:49.066Z,2.88
2024-01-18T03:01:15.526Z,2.85
2024-01-18T03:03:41.955Z,3.80
2024-01-18T03:06:08.434Z,2.17
2024-01-18T03:08:35.517Z,3.13
2024-01-18T03:11:01.981Z,3.38
2024-01-18T03:13:28.345Z,2.78
2024-01-18T03:15:54.849Z,2.65
2024-01-18T03:18:21.387Z,2.92
2024-01-18T03:20:47.815Z,2.38
2024-01-18T03:23:15.093Z,2.75
2024-01-18T03:25:41.485Z,3.17
2024-01-18T03:28:07.916Z,2.50
2024-01-18T03:30:34.358Z,2.85
2024-01-18T03:33:00.951Z,3.15
2024-01-18T03:35:27.492Z,3.13
2024-01-18T03:37:53.894Z,2.10
2024-01-18T03:40:20.269Z,2.80
2024-01-18T03:42:47.070Z,3.17
2024-01-18T03:45:14.062Z,3.22
2024-01-18T03:47:40.583Z,3.40
2024-01-18T03:50:07.542Z,3.03
2024-01-18T03:52:33.912Z,3.50
2024-01-18T03:55:00.317Z,3.00
2024-01-18T03:57:26.751Z,3.42
2024-01-18T03:59:53.231Z,3.00
2024-01-18T04:02:19.598Z,2.60
2024-01-18T04:04:46.006Z,2.30
2024-01-18T04:07:12.425Z,3.35
2024-01-18T04:09:38.861Z,3.20
2024-01-18T04:12:05.881Z,2.97
2024-01-18T04:14:32.741Z,2.80
2024-01-18T04:16:59.316Z,3.38
2024-01-18T04:19:25.805Z,3.47
2024-01-18T04:21:52.306Z,2.88
2024-01-18T04:24:18.745Z,2.88
2024-01-18T04:26:45.229Z,2.55
2024-01-18T04:29:14.034Z,3.30
2024-01-18T04:31:40.455Z,2.58
2024-01-18T04:34:06.885Z,3.95
2024-01-18T04:36:33.326Z,3.35
2024-01-18T04:38:59.726Z,3.55
2024-01-18T04:41:26.472Z,4.28
2024-01-18T04:43:52.847Z,3.67
2024-01-18T04:46:20.934Z,3.60
2024-01-18T04:48:47.359Z,3.53
2024-01-18T04:51:13.920Z,2.63
2024-01-18T04:53:40.796Z,3.05
2024-01-18T04:56:07.594Z,2.88
2024-01-18T04:58:34.587Z,3.10
2024-01-18T05:01:02.431Z,3.33
2024-01-18T05:03:29.070Z,3.50
2024-01-18T05:05:57.842Z,3.58
2024-01-18T05:08:25.048Z,3.17
2024-01-18T05:10:51.707Z,2.78
2024-01-18T05:13:18.089Z,3.83
2024-01-18T05:15:45.103Z,3.63
2024-01-18T05:18:11.858Z,3.50
2024-01-18T05:20:38.438Z,2.55
2024-01-18T05:23:04.801Z,2.95
2024-01-18T05:25:31.251Z,2.67
2024-01-18T05:27:57.985Z,2.92
2024-01-18T05:30:24.780Z,3.33
2024-01-18T05:32:51.272Z,3.22
2024-01-18T05:35:17.649Z,3.33
2024-01-18T05:37:44.018Z,2.92
2024-01-18T05:40:10.811Z,3.50
2024-01-18T05:42:37.230Z,3.70
2024-01-18T05:45:04.036Z,3.13
2024-01-18T05:47:30.491Z,3.10
2024-01-18T05:49:56.972Z,3.55
2024-01-18T05:52:23.508Z,3.60
2024-01-18T05:54:49.918Z,3.63
2024-01-18T05:57:16.347Z,3.65
2024-01-18T05:59:42.738Z,3.47
2024-01-18T06:02:10.523Z,2.58
2024-01-18T06:04:36.970Z,3.35
2024-01-18T06:07:03.809Z,3.25
2024-01-18T06:09:30.409Z,2.88
2024-01-18T06:11:56.897Z,3.38
2024-01-18T06:14:23.319Z,3.20
2024-01-18T06:16:49.746Z,3.97
2024-01-18T06:19:16.243Z,3.33
2024-01-18T06:21:42.789Z,3.30
2024-01-18T06:24:09.562Z,3.47
2024-01-18T06:26:35.968Z,2.72
2024-01-18T06:29:05.339Z,3.33
2024-01-18T06:31:32.241Z,2.22
2024-01-18T06:33:58.897Z,3.40
2024-01-18T06:36:25.559Z,3.03
2024-01-18T06:38:52.058Z,3.33
2024-01-18T06:41:18.584Z,3.25
2024-01-18T06:43:45.064Z,4.20
2024-01-18T06:46:18.707Z,3.65
2024-01-18T06:48:55.030Z,3.22
2024-01-18T06:51:22.496Z,3.58
2024-01-18T06:53:49.163Z,3.28
2024-01-18T06:56:15.633Z,3.80
2024-01-18T06:58:42.559Z,4.03
2024-01-18T07:01:10.747Z,3.45
2024-01-18T07:03:37.862Z,3.53
2024-01-18T07:06:05.297Z,4.07
2024-01-18T07:08:32.514Z,3.63
2024-01-18T07:10:59.437Z,3.85
2024-01-18T07:13:28.457Z,3.88
2024-01-18T07:15:55.455Z,2.35
2024-01-18T07:18:21.954Z,3.13
2024-01-18T07:20:48.625Z,2.97
2024-01-18T07:23:15.055Z,3.75
2024-01-18T07:25:42.111Z,3.55
2024-01-18T07:28:08.530Z,4.05
2024-01-18T07:30:35.040Z,3.05
2024-01-18T07:33:01.729Z,3.55
2024-01-18T07:35:28.271Z,3.53
2024-01-18T07:37:54.667Z,3.15
2024-01-18T07:40:21.195Z,3.47
2024-01-18T07:42:47.633Z,3.72
2024-01-18T07:45:15.680Z,3.75
2024-01-18T07:47:44.277Z,4.10
2024-01-18T07:50:24.184Z,2.97
2024-01-18T07:52:57.452Z,3.92
2024-01-18T07:55:25.618Z,3.53
2024-01-18T07:57:52.828Z,3.60
2024-01-18T08:00:19.504Z,3.58
2024-01-18T08:02:45.988Z,3.67
2024-01-18T08:05:12.973Z,4.13
2024-01-18T08:07:39.698Z,3.55
2024-01-18T08:10:09.622Z,4.25
2024-01-18T08:12:36.887Z,2.80
2024-01-18T08:15:04.065Z,3.78
2024-01-18T08:17:30.478Z,4.43
2024-01-18T08:19:57.480Z,4.35
2024-01-18T08:22:24.012Z,3.17
2024-01-18T08:24:50.445Z,4.18
2024-01-18T08:27:16.924Z,3.65
2024-01-18T08:29:43.356Z,4.28
2024-01-18T08:32:09.744Z,4.15
2024-01-18T08:34:36.588Z,3.72
2024-01-18T08:37:04.857Z,4.57
2024-01-18T08:39:31.502Z,4.15
2024-01-18T08:42:00.351Z,4.25
2024-01-18T08:44:29.994Z,4.22
2024-01-18T08:46:56.908Z,3.70
2024-01-18T08:49:26.332Z,3.50
2024-01-18T08:51:53.620Z,3.47
2024-01-18T08:54:21.758Z,5.15
2024-01-18T08:56:48.472Z,4.07
2024-01-18T08:59:14.937Z,3.45
2024-01-18T09:01:41.507Z,4.50
2024-01-18T09:04:08.089Z,4.00
2024-01-18T09:06:34.565Z,4.53
2024-01-18T09:09:01.051Z,3.90
2024-01-18T09:11:27.512Z,4.82
2024-01-18T09:13:53.917Z,4.38
2024-01-18T09:16:20.387Z,4.20
2024-01-18T09:18:56.686Z,3.88
2024-01-18T09:21:32.891Z,3.28
2024-01-18T09:23:59.377Z,4.07
2024-01-18T09:26:26.371Z,4.28
2024-01-18T09:28:52.819Z,3.22
2024-01-18T09:31:30.706Z,3.90
2024-01-18T09:34:05.072Z,3.70
2024-01-18T09:36:31.697Z,4.63
2024-01-18T09:38:58.096Z,3.38
2024-01-18T09:41:28.141Z,3.47
2024-01-18T09:43:56.387Z,2.90
2024-01-18T09:46:23.635Z,3.85
2024-01-18T09:48:50.378Z,3.97
2024-01-18T09:51:20.436Z,3.60
2024-01-18T09:56:25.342Z,2.97
2024-01-18T09:58:52.998Z,3.95
2024-01-18T10:01:21.755Z,4.00
2024-01-18T10:03:50.049Z,4.28
2024-01-18T10:06:18.715Z,3.78
2024-01-18T10:08:46.392Z,4.13
2024-01-18T10:11:12.939Z,3.78
2024-01-18T10:13:56.329Z,3.60
2024-01-18T10:16:33.796Z,3.42
2024-01-18T10:19:03.285Z,3.97
2024-01-18T10:21:31.234Z,2.45
2024-01-18T10:23:58.435Z,2.92
2024-01-18T10:26:30.159Z,3.83
2024-01-18T10:28:58.768Z,3.40
2024-01-18T10:33:53.149Z,2.80
2024-01-18T10:36:20.220Z,3.10
2024-01-18T10:38:46.749Z,2.95
2024-01-18T10:41:18.732Z,2.60
2024-01-18T10:43:45.138Z,2.30
2024-01-18T10:46:12.212Z,2.08
2024-01-18T10:48:38.681Z,2.65
2024-01-18T10:51:06.847Z,2.53
2024-01-18T10:53:37.718Z,2.85
2024-01-18T10:56:04.523Z,2.03
2024-01-18T10:58:31.996Z,2.58
2024-01-18T11:00:59.384Z,2.63
2024-01-18T11:03:27.914Z,2.17
2024-01-18T11:05:54.819Z,2.33
2024-01-18T11:08:23.634Z,2.28
2024-01-18T11:10:50.113Z,2.78
2024-01-18T11:13:17.482Z,2.85
2024-01-18T11:15:45.617Z,2.70
2024-01-18T11:18:13.735Z,3.05
2024-01-18T11:20:58.704Z,3.10
2024-01-18T11:23:43.372Z,2.83
2024-01-18T11:26:19.822Z,2.55
2024-01-18T11:28:46.557Z,1.98
2024-01-18T11:31:13.119Z,1.98
2024-01-18T11:33:39.621Z,1.75
2024-01-18T11:36:09.815Z,2.03
2024-01-18T11:38:45.123Z,2.13
2024-01-18T11:41:20.877Z,2.13
2024-01-18T11:44:02.853Z,1.90
2024-01-18T11:46:35.182Z,2.45
2024-01-18T11:49:01.755Z,1.98
2024-01-18T11:51:29.623Z,1.95
2024-01-18T11:53:57.952Z,1.75
2024-01-18T11:56:24.767Z,1.48
2024-01-18T11:58:53.046Z,1.52
2024-01-18T12:01:20.472Z,1.80
2024-01-18T12:03:48.094Z,1.45
2024-01-18T12:06:15.566Z,1.85
2024-01-18T12:08:42.697Z,2.17
2024-01-18T12:11:09.216Z,1.60
2024-01-18T12:13:36.342Z,1.40
2024-01-18T12:16:03.057Z,1.33
2024-01-18T12:18:40.147Z,1.63
2024-01-18T12:21:06.969Z,1.67
2024-01-18T12:23:33.479Z,1.83
2024-01-18T12:26:00.419Z,1.30
2024-01-18T12:28:27.960Z,1.70
2024-01-18T12:31:01.968Z,1.10
2024-01-18T12:33:32.075Z,1.77
2024-01-18T12:35:59.427Z,1.00
2024-01-18T12:38:27.461Z,1.60
2024-01-18T12:40:53.976Z,1.27
2024-01-18T12:43:20.451Z,1.17
2024-01-18T12:45:53.373Z,1.83
2024-01-18T12:48:20.594Z,1.75
2024-01-18T12:50:47.828Z,1.65
2024-01-18T12:53:14.770Z,1.13
2024-01-18T12:55:42.257Z,1.30
2024-01-18T12:58:13.552Z,1.30
2024-01-18T13:00:40.049Z,0.98
2024-01-18T13:03:13.502Z,1.63
2024-01-18T13:05:44.528Z,1.42
2024-01-18T13:08:11.870Z,1.10
2024-01-18T13:10:38.725Z,1.80
2024-01-18T13:13:07.470Z,1.13
2024-01-18T13:15:33.980Z,0.98
2024-01-18T13:18:02.867Z,1.17
2024-01-18T13:20:29.708Z,0.88
2024-01-18T13:22:56.202Z,1.13
2024-01-18T13:25:22.649Z,1.35
2024-01-18T13:27:49.301Z,1.38
2024-01-18T13:30:15.880Z,1.52
2024-01-18T13:32:42.332Z,1.55
2024-01-18T13:35:09.103Z,1.13
2024-01-18T13:37:35.587Z,1.27
2024-01-18T13:40:02.765Z,1.25
2024-01-18T13:42:29.208Z,1.35
2024-01-18T13:44:55.814Z,1.10
2024-01-18T13:47:22.388Z,1.08
2024-01-18T13:49:50.426Z,1.48
2024-01-18T13:52:19.514Z,1.35
2024-01-18T13:54:46.275Z,1.00
2024-01-18T13:57:13.850Z,1.17
2024-01-18T13:59:40.234Z,0.77
2024-01-18T14:02:06.636Z,0.93
2024-01-18T14:04:33.106Z,0.85
2024-01-18T14:07:00.024Z,0.63
2024-01-18T14:09:26.556Z,1.05
2024-01-18T14:11:52.975Z,0.80
2024-01-18T14:14:19.354Z,1.15
2024-01-18T14:16:46.234Z,0.70
2024-01-18T14:19:12.596Z,0.85
2024-01-18T14:21:39.038Z,1.00
2024-01-18T14:24:06.042Z,1.27
2024-01-18T14:26:32.495Z,0.50
2024-01-18T14:28:58.860Z,0.88
2024-01-18T14:31:25.470Z,0.68
2024-01-18T14:33:52.033Z,0.55
2024-01-18T14:36:19.627Z,0.82
2024-01-18T14:38:47.376Z,0.85
2024-01-18T14:41:13.792Z,1.05
2024-01-18T14:43:40.212Z,0.88
2024-01-18T14:46:07.816Z,0.70
2024-01-18T14:48:34.539Z,0.63
2024-01-18T14:51:01.135Z,0.90
2024-01-18T14:53:27.540Z,0.45
2024-01-18T14:55:54.080Z,1.33
2024-01-18T14:58:20.469Z,0.90
2024-01-18T15:00:46.929Z,1.38
2024-01-18T15:03:15.449Z,0.80
2024-01-18T15:05:41.990Z,0.93
2024-01-18T15:08:08.524Z,0.77
2024-01-18T15:10:35.169Z,1.10
2024-01-18T15:13:01.710Z,0.77
2024-01-18T15:15:28.371Z,0.70
2024-01-18T15:17:55.439Z,0.75
2024-01-18T15:20:22.347Z,1.25
2024-01-18T15:22:48.890Z,0.68
2024-01-18T15:25:15.472Z,1.05
2024-01-18T15:27:41.957Z,0.57
2024-01-18T15:30:09.151Z,0.75
2024-01-18T15:32:35.985Z,0.90
2024-01-18T15:35:04.539Z,0.50
2024-01-18T15:37:31.451Z,0.73
2024-01-18T15:39:58.020Z,0.70
2024-01-18T15:42:24.590Z,0.65
2024-01-18T15:44:51.137Z,1.15
2024-01-18T15:47:17.578Z,0.60
2024-01-18T15:49:44.639Z,0.82
2024-01-18T15:52:11.591Z,0.52
2024-01-18T15:54:38.174Z,0.47
2024-01-18T15:57:06.555Z,0.90
2024-01-18T15:59:33.063Z,1.00
2024-01-18T16:01:59.537Z,1.00
2024-01-18T16:04:26.711Z,0.57
2024-01-18T16:06:53.282Z,1.17
2024-01-18T16:09:19.862Z,0.88
2024-01-18T16:11:46.880Z,0.90
2024-01-18T16:14:13.312Z,0.95
2024-01-18T16:16:39.745Z,0.65
2024-01-18T16:19:06.574Z,0.65
2024-01-18T16:21:33.055Z,1.13
2024-01-18T16:23:59.525Z,0.60
2024-01-18T16:26:25.882Z,0.90
2024-01-18T16:28:52.272Z,0.73
2024-01-18T16:31:18.776Z,0.65
2024-01-18T16:33:45.445Z,1.13
2024-01-18T16:36:12.813Z,0.95
2024-01-18T16:38:40.317Z,0.93
2024-01-18T16:41:08.510Z,0.77
2024-01-18T16:43:34.987Z,0.70
2024-01-18T16:46:02.025Z,0.80
2024-01-18T16:48:28.583Z,0.85
2024-01-18T16:50:55.259Z,0.70
2024-01-18T16:53:22.190Z,1.50
2024-01-18T16:55:48.697Z,0.82
2024-01-18T16:58:15.124Z,0.57
2024-01-18T17:00:41.592Z,0.90
2024-01-18T17:03:07.988Z,0.80
2024-01-18T17:05:34.627Z,0.80
2024-01-18T17:08:02.225Z,0.65
2024-01-18T17:10:28.621Z,0.82
2024-01-18T17:12:55.019Z,0.60
2024-01-18T17:15:21.383Z,1.02
2024-01-18T17:17:47.938Z,1.05
2024-01-18T17:20:14.430Z,1.05
2024-01-18T17:22:40.912Z,1.27
2024-01-18T17:25:09.065Z,1.27
2024-01-18T17:27:35.675Z,1.08
2024-01-18T17:30:02.466Z,0.75
2024-01-18T17:32:29.070Z,0.98
2024-01-18T17:34:58.076Z,0.70
2024-01-18T17:37:24.558Z,1.27
2024-01-18T17:39:51.665Z,1.00
2024-01-18T17:42:19.312Z,0.90
2024-01-18T17:44:45.758Z,0.80
2024-01-18T17:47:12.241Z,0.95
2024-01-18T17:49:39.151Z,1.15
2024-01-18T17:52:06.151Z,1.13
2024-01-18T17:54:32.993Z,1.30
2024-01-18T17:56:59.403Z,0.80
2024-01-18T17:59:25.853Z,1.05
2024-01-18T18:01:52.283Z,0.93
2024-01-18T18:04:18.668Z,1.05
2024-01-18T18:06:45.400Z,0.85
2024-01-18T18:09:12.642Z,0.90
2024-01-18T18:11:39.197Z,1.05
2024-01-18T18:14:05.654Z,0.90
2024-01-18T18:16:32.014Z,0.80
2024-01-18T18:18:58.451Z,1.00
2024-01-18T18:21:26.943Z,1.13
2024-01-18T18:23:56.266Z,0.73
2024-01-18T18:26:24.352Z,0.35
2024-01-18T18:28:55.016Z,0.93
2024-01-18T18:31:22.439Z,0.75
2024-01-18T18:33:49.075Z,0.95
2024-01-18T18:36:15.607Z,1.15
2024-01-18T18:38:42.168Z,1.05
2024-01-18T18:41:08.891Z,1.05
2024-01-18T18:43:38.623Z,1.38
2024-01-18T18:46:07.188Z,0.73
2024-01-18T18:48:34.067Z,1.02
2024-01-18T18:51:00.677Z,1.63
2024-01-18T18:53:27.386Z,1.13
2024-01-18T18:55:54.058Z,1.17
2024-01-18T18:58:21.916Z,1.27
2024-01-18T19:00:49.578Z,1.23
2024-01-18T19:03:17.002Z,1.80
2024-01-18T19:05:44.761Z,1.30
2024-01-18T19:08:11.320Z,1.42
2024-01-18T19:10:38.022Z,1.40
2024-01-18T19:13:05.314Z,1.35
2024-01-18T19:15:31.813Z,1.13
2024-01-18T19:17:58.359Z,2.17
2024-01-18T19:20:24.898Z,1.60
2024-01-18T19:22:51.294Z,1.50
2024-01-18T19:25:17.790Z,1.35
2024-01-18T19:27:44.179Z,1.63
2024-01-18T19:30:11.285Z,1.33
2024-01-18T19:32:40.644Z,1.15
2024-01-18T19:35:07.539Z,1.30
2024-01-18T19:37:33.929Z,1.23
2024-01-18T19:40:00.450Z,1.20
2024-01-18T19:42:26.932Z,1.08
2024-01-18T19:44:53.938Z,1.20
2024-01-18T19:47:21.102Z,1.50
2024-01-18T19:49:47.501Z,1.35
2024-01-18T19:52:13.902Z,1.67
2024-01-18T19:54:40.360Z,1.50
2024-01-18T19:57:06.794Z,1.85
2024-01-18T19:59:35.239Z,1.40
2024-01-18T20:02:08.512Z,1.20
2024-01-18T20:04:39.464Z,1.33
2024-01-18T20:07:06.711Z,1.42
2024-01-18T20:09:33.595Z,1.38
2024-01-18T20:12:00.292Z,1.70
2024-01-18T20:14:27.171Z,1.65
2024-01-18T20:16:53.587Z,1.35
2024-01-18T20:19:21.722Z,1.17
2024-01-18T20:21:55.430Z,1.55
2024-01-18T20:24:22.364Z,1.42
2024-01-18T20:26:49.200Z,1.48
2024-01-18T20:29:16.018Z,1.30
2024-01-18T20:31:43.523Z,2.03
2024-01-18T20:34:11.258Z,1.50
2024-01-18T20:36:38.060Z,1.15
2024-01-18T20:39:04.763Z,1.67
2024-01-18T20:41:32.192Z,1.48
2024-01-18T20:43:59.228Z,0.98
2024-01-18T20:46:27.665Z,1.30
2024-01-18T20:48:54.802Z,0.82
2024-01-18T20:51:21.397Z,1.05
2024-01-18T20:53:47.775Z,1.38
2024-01-18T20:56:14.268Z,1.15
2024-01-18T20:58:40.668Z,1.00
2024-01-18T21:01:07.055Z,0.95
2024-01-18T21:03:33.651Z,0.70
2024-01-18T21:06:00.189Z,0.82
2024-01-18T21:08:27.017Z,1.00
2024-01-18T21:10:53.416Z,0.55
2024-01-18T21:13:19.914Z,0.75
2024-01-18T21:15:46.518Z,0.88
2024-01-18T21:18:13.088Z,0.55
2024-01-18T21:20:39.682Z,0.77
2024-01-18T21:23:06.155Z,1.08
2024-01-18T21:25:32.562Z,0.90
2024-01-18T21:27:58.948Z,0.82
2024-01-18T21:30:26.293Z,1.13
2024-01-18T21:32:53.049Z,0.70
2024-01-18T21:35:19.847Z,0.75
2024-01-18T21:37:46.389Z,1.50
2024-01-18T21:40:12.836Z,1.02
2024-01-18T21:42:39.695Z,1.10
2024-01-18T21:45:07.303Z,0.68
2024-01-18T21:47:34.236Z,0.43
2024-01-18T21:50:01.365Z,0.52
2024-01-18T21:52:28.250Z,0.93
2024-01-18T21:54:55.327Z,1.13
2024-01-18T21:57:22.750Z,0.88
2024-01-18T21:59:49.955Z,0.73
2024-01-18T22:02:16.576Z,0.80
2024-01-18T22:04:43.205Z,1.00
2024-01-18T22:07:09.982Z,0.57
2024-01-18T22:09:41.913Z,0.70
2024-01-18T22:12:09.671Z,0.50
2024-01-18T22:14:36.144Z,0.80
2024-01-18T22:17:02.597Z,0.70
2024-01-18T22:19:40.237Z,0.45
2024-01-18T22:22:13.792Z,1.10
2024-01-18T22:24:40.223Z,0.60
2024-01-18T22:27:06.658Z,0.73
2024-01-18T22:29:33.113Z,0.28
2024-01-18T22:31:59.516Z,0.35
2024-01-18T22:34:25.960Z,0.50
2024-01-18T22:36:52.357Z,0.88
2024-01-18T22:39:18.767Z,0.75
2024-01-18T22:41:45.715Z,0.75
2024-01-18T22:44:12.248Z,1.17
2024-01-18T22:46:38.661Z,0.68
2024-01-18T22:49:05.162Z,0.60
2024-01-18T22:51:31.681Z,0.90
2024-01-18T22:53:58.122Z,0.50
2024-01-18T22:56:24.571Z,0.68
2024-01-18T22:58:50.978Z,0.90
2024-01-18T23:01:17.368Z,0.63
2024-01-18T23:03:44.810Z,0.40
2024-01-18T23:06:13.206Z,0.80
2024-01-18T23:08:39.769Z,0.90
2024-01-18T23:11:06.227Z,0.63
2024-01-18T23:13:32.668Z,0.40
2024-01-18T23:16:01.075Z,0.95
2024-01-18T23:18:27.634Z,1.00
2024-01-18T23:20:54.204Z,0.55
2024-01-18T23:23:20.691Z,0.70
2024-01-18T23:25:47.169Z,0.88
2024-01-18T23:28:13.723Z,0.68
2024-01-18T23:30:40.202Z,0.85
2024-01-18T23:33:06.896Z,0.65
2024-01-18T23:35:33.520Z,0.93
2024-01-18T23:37:59.971Z,0.65
2024-01-18T23:40:26.357Z,0.90
2024-01-18T23:42:52.763Z,0.50
2024-01-18T23:45:19.140Z,1.08
2024-01-18T23:47:45.645Z,0.52
2024-01-18T23:50:12.092Z,1.00
2024-01-18T23:52:38.552Z,0.60
2024-01-18T23:55:07.792Z,0.63
2024-01-18T23:57:34.239Z,0.63
